Time;durP1;ratioP1;P1;durP2;ratioP2;P2;SDS_P1;SDS_P2;PMS_P1;PMS_P2;Temp;Humidity;BMP_temperature;BMP_pressure;BME280_temperature;BME280_humidity;BME280_pressure;Samples;Min_cycle;Max_cycle;Signal;HPM_P1;HPM_P2
2023/04/27 00:02:11;;;;;;;14.23;7.63;;;0.90;1.00;;;;;;8324976;28;20285;-64
2023/04/27 00:06:26;;;;;;;11.47;6.63;;;1.00;1.00;;;;;;8332081;28;20197;-67
2023/04/27 00:10:36;;;;;;;12.07;6.73;;;1.00;1.00;;;;;;8331217;28;20201;-66
2023/04/27 00:15:05;;;;;;;11.30;7.10;;;1.00;1.00;;;;;;8334576;28;20239;-66
2023/04/27 00:19:34;;;;;;;;;;;;;;;;;;;;;
2023/04/27 00:24:19;;;;;;;13.13;7.37;;;1.00;1.00;;;;;;8331703;28;20256;-66
2023/04/27 00:28:26;;;;;;;15.00;8.63;;;1.00;1.00;;;;;;8323683;28;20212;-66
2023/04/27 00:32:46;;;;;;;17.30;8.10;;;1.00;1.00;;;;;;8327813;28;20190;-66
2023/04/27 00:36:50;;;;;;;15.27;8.03;;;1.00;1.00;;;;;;8328772;28;20189;-69
2023/04/27 00:41:17;;;;;;;13.80;7.47;;;1.00;1.00;;;;;;8327004;28;20188;-69
2023/04/27 00:45:18;;;;;;;13.87;7.63;;;1.00;1.00;;;;;;8326868;28;20296;-69
2023/04/27 00:49:23;;;;;;;18.83;8.87;;;1.00;1.00;;;;;;8328909;28;20190;-72
2023/04/27 00:53:40;;;;;;;22.10;9.37;;;0.90;1.00;;;;;;8320268;28;20202;-69
2023/04/27 00:57:47;;;;;;;19.03;9.00;;;0.90;1.00;;;;;;8332684;28;20224;-68
2023/04/27 01:01:49;;;;;;;14.77;7.03;;;0.80;1.00;;;;;;8325515;28;20316;-69
2023/04/27 01:06:00;;;;;;;21.10;8.97;;;0.80;1.00;;;;;;8332020;28;20205;-69
2023/04/27 01:10:07;;;;;;;16.20;8.13;;;0.80;1.00;;;;;;8328065;28;20205;-69
2023/04/27 01:14:16;;;;;;;13.30;6.77;;;0.80;1.00;;;;;;8326652;28;20235;-70
2023/04/27 01:19:04;;;;;;;14.97;7.47;;;0.70;1.00;;;;;;8327757;28;20197;-66
2023/04/27 01:23:14;;;;;;;15.70;6.87;;;0.70;1.00;;;;;;8321318;28;20233;-67
2023/04/27 01:27:21;;;;;;;11.63;7.37;;;0.80;1.00;;;;;;8312598;28;20186;-66
2023/04/27 01:31:24;;;;;;;14.50;7.53;;;0.70;1.00;;;;;;8326579;28;20262;-67
2023/04/27 01:35:31;;;;;;;12.97;7.20;;;0.70;1.00;;;;;;8328519;28;20263;-67
2023/04/27 01:39:54;;;;;;;20.60;9.63;;;0.70;1.00;;;;;;8327566;28;20221;-67
2023/04/27 01:44:10;;;;;;;16.83;8.03;;;0.70;1.00;;;;;;8322511;28;20217;-66
2023/04/27 01:49:01;;;;;;;14.17;7.60;;;0.70;1.00;;;;;;8327705;28;20189;-67
2023/04/27 01:53:25;;;;;;;17.00;7.77;;;0.60;1.00;;;;;;8318456;28;20230;-67
2023/04/27 01:57:35;;;;;;;18.10;7.83;;;0.60;2.80;;;;;;8325091;28;20213;-67
2023/04/27 02:02:26;;;;;;;12.17;6.60;;;0.60;33.80;;;;;;8326974;28;20190;-67
2023/04/27 02:07:26;;;;;;;14.47;6.83;;;0.60;1.00;;;;;;8324466;28;20200;-67
2023/04/27 02:11:28;;;;;;;11.60;6.73;;;0.50;22.80;;;;;;8322375;28;20194;-66
2023/04/27 02:20:09;;;;;;;11.80;6.33;;;0.70;1.00;;;;;;8325102;28;20197;-68
2023/04/27 02:29:12;;;;;;;11.43;6.37;;;0.90;1.00;;;;;;8247756;28;20297;-68
2023/04/27 02:33:14;;;;;;;12.83;7.17;;;1.00;1.00;;;;;;8316091;28;20193;-66
2023/04/27 02:37:20;;;;;;;13.63;6.97;;;1.00;1.00;;;;;;8326024;28;20202;-67
2023/04/27 02:41:26;;;;;;;13.70;7.00;;;1.00;1.00;;;;;;8344066;28;20216;-67
2023/04/27 02:50:29;;;;;;;10.37;6.07;;;1.10;99.90;;;;;;8323334;28;20216;-66
2023/04/27 02:54:59;;;;;;;9.17;6.00;;;1.20;99.90;;;;;;8323113;28;20209;-66
2023/04/27 02:59:09;;;;;;;9.20;5.30;;;1.30;99.90;;;;;;8226440;28;20361;-71
2023/04/27 03:03:23;;;;;;;8.83;5.43;;;1.50;99.90;;;;;;8257363;28;20223;-70
2023/04/27 03:07:41;;;;;;;10.43;6.70;;;1.60;99.90;;;;;;8259524;28;20199;-70
2023/04/27 03:11:42;;;;;;;11.53;4.97;;;1.80;99.90;;;;;;8264771;28;20207;-70
2023/04/27 03:15:52;;;;;;;10.60;5.40;;;1.90;99.90;;;;;;8260692;28;20245;-69
2023/04/27 03:20:14;;;;;;;11.23;5.57;;;2.00;99.90;;;;;;8255115;28;20209;-71
2023/04/27 03:24:17;;;;;;;9.40;5.83;;;2.10;99.90;;;;;;8247058;28;20227;-70
2023/04/27 03:28:53;;;;;;;8.67;5.37;;;2.20;99.90;;;;;;8262202;28;20206;-70
2023/04/27 03:33:29;;;;;;;9.77;5.33;;;2.20;99.90;;;;;;8257552;28;20211;-69
2023/04/27 03:37:46;;;;;;;8.47;5.20;;;2.30;99.90;;;;;;8325427;28;20204;-70
2023/04/27 03:42:16;;;;;;;13.57;4.60;;;2.40;99.90;;;;;;8318904;28;20229;-70
2023/04/27 03:46:22;;;;;;;6.97;4.93;;;2.40;99.90;;;;;;8295833;28;20232;-70
2023/04/27 03:54:58;;;;;;;10.43;5.10;;;2.50;99.90;;;;;;8319696;28;20202;-70
2023/04/27 03:58:59;;;;;;;9.27;4.60;;;2.50;99.90;;;;;;8304880;28;20232;-70
2023/04/27 04:03:18;;;;;;;7.90;4.57;;;2.60;99.90;;;;;;8303368;28;20280;-71
2023/04/27 04:07:42;;;;;;;6.07;4.47;;;2.60;99.90;;;;;;8298197;28;20201;-71
2023/04/27 04:11:46;;;;;;;9.43;4.53;;;2.70;99.90;;;;;;8303971;28;20285;-71
2023/04/27 04:15:59;;;;;;;6.20;5.03;;;2.70;99.90;;;;;;8314697;28;20225;-69
2023/04/27 04:20:10;;;;;;;8.10;4.10;;;2.70;99.90;;;;;;8319812;28;20199;-70
2023/04/27 04:29:22;;;;;;;9.30;5.03;;;2.90;99.90;;;;;;8296989;28;20231;-71
2023/04/27 04:33:32;;;;;;;6.27;4.17;;;3.10;99.90;;;;;;8323415;28;20201;-71
2023/04/27 04:37:48;;;;;;;7.07;4.17;;;3.20;99.90;;;;;;8317334;28;20190;-69
2023/04/27 04:42:18;;;;;;;8.33;4.47;;;3.40;99.90;;;;;;8320566;28;20222;-71
2023/04/27 04:46:29;;;;;;;7.53;4.30;;;3.50;86.70;;;;;;8320273;28;20275;-70
2023/04/27 04:50:46;;;;;;;9.43;4.37;;;3.60;66.90;;;;;;8324614;28;20248;-69
2023/04/27 04:59:42;;;;;;;7.77;4.43;;;3.80;39.00;;;;;;8313493;28;20209;-70
2023/04/27 05:03:48;;;;;;;8.13;4.43;;;3.90;28.60;;;;;;8325183;28;20223;-70
2023/04/27 05:08:19;;;;;;;8.80;4.37;;;4.10;23.10;;;;;;8337366;28;20284;-71
2023/04/27 05:12:29;;;;;;;11.17;4.57;;;4.20;16.50;;;;;;8328705;28;20204;-70
2023/04/27 05:16:33;;;;;;;7.80;4.50;;;4.50;4.40;;;;;;8335634;28;20197;-69
2023/04/27 05:20:59;;;;;;;7.10;4.63;;;4.70;1.00;;;;;;8333990;28;20224;-70
2023/04/27 05:25:10;;;;;;;9.60;4.93;;;4.90;1.00;;;;;;8325782;28;20332;-69
2023/04/27 05:29:32;;;;;;;9.40;4.27;;;5.10;1.00;;;;;;8342179;28;20189;-70
2023/04/27 05:33:48;;;;;;;7.33;3.80;;;5.30;1.00;;;;;;8320093;28;20190;-70
2023/04/27 05:38:05;;;;;;;9.93;4.53;;;5.50;1.00;;;;;;8330160;28;20190;-71
2023/04/27 05:42:09;;;;;;;8.20;4.03;;;5.50;1.00;;;;;;8342801;28;20221;-70
2023/04/27 05:46:17;;;;;;;7.03;4.17;;;5.50;1.00;;;;;;8317588;28;20194;-71
2023/04/27 05:50:18;;;;;;;6.93;4.00;;;5.70;1.00;;;;;;8326928;28;20285;-71
2023/04/27 05:54:20;;;;;;;7.70;4.73;;;5.90;1.00;;;;;;8325378;28;20208;-70
2023/04/27 05:58:30;;;;;;;7.23;3.87;;;6.10;1.00;;;;;;8396054;23;20320;-69
2023/04/27 06:02:45;;;;;;;9.80;3.77;;;6.00;1.00;;;;;;8318431;28;20301;-70
2023/04/27 06:06:46;;;;;;;8.77;3.90;;;6.20;1.00;;;;;;8319782;28;20182;-69
2023/04/27 06:10:53;;;;;;;7.97;4.43;;;6.10;1.00;;;;;;8317498;28;20190;-69
2023/04/27 06:14:57;;;;;;;8.93;3.90;;;6.30;1.00;;;;;;8316703;28;20190;-69
2023/04/27 06:19:13;;;;;;;8.70;3.80;;;6.60;1.00;;;;;;8320435;28;20198;-70
2023/04/27 06:23:18;;;;;;;5.60;3.73;;;6.70;1.00;;;;;;8319097;28;20271;-70
2023/04/27 06:27:51;;;;;;;11.13;4.13;;;6.90;1.00;;;;;;8310564;28;20213;-71
2023/04/27 06:31:55;;;;;;;9.23;3.70;;;7.20;1.00;;;;;;8294508;28;20228;-70
2023/04/27 06:36:17;;;;;;;6.83;3.60;;;7.60;1.00;;;;;;8321099;28;20194;-67
2023/04/27 06:45:25;;;;;;;5.23;3.33;;;7.30;1.00;;;;;;8322641;28;20309;-68
2023/04/27 06:49:32;;;;;;;5.73;3.10;;;7.70;1.00;;;;;;8325752;28;20192;-69
2023/04/27 06:53:58;;;;;;;7.23;3.17;;;7.90;1.00;;;;;;8327836;28;20198;-68
2023/04/27 06:58:25;;;;;;;9.20;3.37;;;8.30;1.00;;;;;;8336905;28;20228;-69
2023/04/27 07:02:48;;;;;;;6.03;2.87;;;8.40;1.00;;;;;;8357902;28;20240;-68
2023/04/27 07:06:58;;;;;;;3.67;2.80;;;8.20;1.00;;;;;;8361844;28;20209;-71
2023/04/27 07:11:11;;;;;;;5.07;3.10;;;7.50;1.00;;;;;;8357185;28;20201;-69
2023/04/27 07:15:24;;;;;;;6.30;3.13;;;7.20;1.00;;;;;;8350360;28;20322;-69
2023/04/27 07:19:28;;;;;;;4.07;2.90;;;7.30;1.00;;;;;;8347497;28;20283;-69
2023/04/27 07:23:45;;;;;;;5.27;3.40;;;7.40;1.00;;;;;;8353099;28;20213;-69
2023/04/27 07:28:03;;;;;;;6.03;2.33;;;7.60;1.00;;;;;;8354126;28;20198;-69
2023/04/27 07:37:01;;;;;;;4.63;2.70;;;8.40;1.00;;;;;;8341817;28;20324;-70
2023/04/27 07:46:37;;;;;;;6.70;2.57;;;8.30;1.00;;;;;;8233911;28;20195;-70
2023/04/27 07:50:43;;;;;;;5.23;2.60;;;8.60;1.00;;;;;;8279129;28;20226;-71
2023/04/27 07:54:57;;;;;;;8.00;3.07;;;8.50;1.00;;;;;;8357659;28;20217;-72
2023/04/27 07:59:06;;;;;;;6.13;2.70;;;8.60;1.00;;;;;;8354899;28;20232;-72
2023/04/27 08:03:32;;;;;;;3.80;2.50;;;8.50;1.00;;;;;;8345687;28;20213;-70
2023/04/27 08:07:43;;;;;;;8.17;2.90;;;8.80;1.00;;;;;;8346978;28;20203;-69
2023/04/27 08:11:44;;;;;;;4.83;2.70;;;9.30;1.00;;;;;;8352087;28;20228;-70
2023/04/27 08:15:45;;;;;;;7.33;3.07;;;9.60;1.00;;;;;;8355667;28;20249;-68
2023/04/27 08:20:54;;;;;;;9.23;2.90;;;9.60;1.00;;;;;;8359962;28;20188;-69
2023/04/27 08:34:47;;;;;;;6.10;3.40;;;9.00;1.00;;;;;;8358207;28;20212;-70
2023/04/27 08:44:34;;;;;;;;;;;;;;;;;;;;;
2023/04/27 08:49:17;;;;;;;2.33;2.00;;;11.00;1.00;;;;;;8343029;28;20267;-69
2023/04/27 08:53:33;;;;;;;6.47;2.70;;;11.10;1.00;;;;;;8268925;28;20210;-70
2023/04/27 08:57:40;;;;;;;5.53;2.80;;;10.20;1.00;;;;;;8326798;28;20234;-70
2023/04/27 09:06:38;;;;;;;3.53;2.17;;;9.40;1.00;;;;;;8351003;28;20210;-68
2023/04/27 09:11:23;;;;;;;5.47;2.17;;;9.80;1.00;;;;;;8356267;28;20183;-68
2023/04/27 09:15:40;;;;;;;4.50;2.30;;;10.20;1.00;;;;;;8322441;28;20331;-68
2023/04/27 09:19:41;;;;;;;4.63;2.27;;;10.20;1.00;;;;;;8357292;28;20193;-69
2023/04/27 09:23:45;;;;;;;7.27;2.60;;;10.10;1.00;;;;;;8353048;28;20329;-70
2023/04/27 09:28:03;;;;;;;7.13;2.60;;;10.20;1.00;;;;;;8353455;28;20197;-70
2023/04/27 09:32:32;;;;;;;3.93;2.83;;;10.10;1.00;;;;;;8340743;28;20197;-69
2023/04/27 09:36:47;;;;;;;5.83;2.67;;;10.20;1.00;;;;;;8356899;28;20191;-69
2023/04/27 09:41:13;;;;;;;5.87;2.43;;;9.90;1.00;;;;;;8352879;28;20194;-71
2023/04/27 09:45:27;;;;;;;6.77;2.60;;;10.00;1.00;;;;;;8333650;28;20223;-69
2023/04/27 09:50:07;;;;;;;;;;;;;;;;;;;;;
2023/04/27 09:55:00;;;;;;;7.47;2.43;;;10.10;1.00;;;;;;8356282;28;20210;-70
2023/04/27 09:59:40;;;;;;;8.10;2.90;;;10.40;1.00;;;;;;8356342;28;20273;-70
2023/04/27 10:04:38;;;;;;;5.37;2.37;;;10.60;1.00;;;;;;8364899;28;20227;-68
2023/04/27 10:09:34;;;;;;;6.37;3.17;;;11.50;1.00;;;;;;8273827;28;20193;-68
2023/04/27 10:14:05;;;;;;;6.27;2.80;;;12.80;1.00;;;;;;8336511;28;20228;-70
2023/04/27 10:28:41;;;;;;;10.60;3.07;;;11.80;1.00;;;;;;8182873;28;20336;-70
2023/04/27 10:33:37;;;;;;;3.33;2.80;;;10.90;1.00;;;;;;8296695;28;20198;-70
2023/04/27 10:38:02;;;;;;;4.90;2.50;;;10.70;1.00;;;;;;8224835;28;20205;-68
2023/04/27 10:47:00;;;;;;;4.67;1.80;;;11.90;1.00;;;;;;8294408;28;20186;-69
2023/04/27 10:51:07;;;;;;;6.27;2.33;;;12.00;1.00;;;;;;8306322;28;20185;-69
2023/04/27 10:56:00;;;;;;;5.17;2.57;;;12.40;1.00;;;;;;8336489;28;20203;-69
2023/04/27 11:06:04;;;;;;;4.33;2.27;;;13.00;1.00;;;;;;8276545;28;20221;-68
2023/04/27 11:10:23;;;;;;;4.97;2.80;;;13.30;1.00;;;;;;8335871;28;20216;-70
2023/04/27 11:14:35;;;;;;;2.57;2.30;;;13.00;1.00;;;;;;8353880;28;20181;-69
2023/04/27 11:19:07;;;;;;;5.97;2.43;;;11.50;1.00;;;;;;8354860;28;20226;-70
2023/04/27 11:24:06;;;;;;;5.43;2.60;;;10.00;1.00;;;;;;8350855;28;20222;-70
2023/04/27 11:29:05;;;;;;;4.67;3.13;;;9.40;1.00;;;;;;8331629;28;20190;-71
2023/04/27 11:33:58;;;;;;;5.67;2.97;;;9.40;1.00;;;;;;8356538;28;20177;-70
2023/04/27 11:38:05;;;;;;;3.43;2.50;;;9.70;1.00;;;;;;8301659;28;20189;-68
2023/04/27 11:43:03;;;;;;;9.37;3.37;;;9.70;1.00;;;;;;8313623;28;22126;-69
2023/04/27 11:47:21;;;;;;;6.33;3.00;;;10.10;1.00;;;;;;8346435;28;20190;-68
2023/04/27 11:51:43;;;;;;;6.00;3.63;;;10.40;1.00;;;;;;8353927;28;20193;-68
2023/04/27 11:56:15;;;;;;;;;;;;;;;;;;;;;
2023/04/27 12:00:23;;;;;;;6.27;3.60;;;9.90;1.00;;;;;;8357812;28;20205;-69
2023/04/27 12:08:53;;;;;;;7.40;3.73;;;9.70;1.00;;;;;;8339930;28;20198;-69
2023/04/27 12:13:11;;;;;;;5.60;3.50;;;10.20;1.00;;;;;;8355596;28;20201;-68
2023/04/27 12:17:27;;;;;;;4.27;3.57;;;10.80;1.00;;;;;;8355664;28;20195;-69
2023/04/27 12:21:28;;;;;;;6.37;3.60;;;11.10;1.00;;;;;;8356152;28;20216;-67
2023/04/27 12:25:45;;;;;;;5.43;2.70;;;11.60;1.00;;;;;;8350973;28;20237;-69
2023/04/27 12:30:18;;;;;;;4.03;2.57;;;11.90;1.00;;;;;;8360390;28;20202;-69
2023/04/27 12:40:22;;;;;;;4.67;2.60;;;11.60;1.00;;;;;;8196050;28;20218;-69
2023/04/27 12:44:46;;;;;;;2.63;2.13;;;11.30;1.00;;;;;;8202330;28;20223;-68
2023/04/27 12:49:01;;;;;;;4.70;2.70;;;11.80;1.00;;;;;;8239436;28;20225;-67
2023/04/27 12:53:20;;;;;;;5.33;2.83;;;11.60;1.00;;;;;;8324770;28;20208;-68
2023/04/27 12:58:01;;;;;;;6.93;2.87;;;11.40;1.00;;;;;;8312605;28;20214;-71
2023/04/27 13:02:11;;;;;;;4.50;2.30;;;11.70;1.00;;;;;;8321848;28;20340;-68
2023/04/27 13:06:16;;;;;;;4.43;2.80;;;12.20;1.00;;;;;;8358258;28;20205;-68
2023/04/27 13:10:17;;;;;;;2.83;2.50;;;11.80;1.00;;;;;;8335277;28;20198;-67
2023/04/27 13:14:21;;;;;;;3.57;2.53;;;11.50;1.00;;;;;;8356894;28;20197;-69
2023/04/27 13:18:48;;;;;;;3.80;2.40;;;11.30;1.00;;;;;;8360539;28;20190;-70
2023/04/27 13:23:01;;;;;;;5.40;2.73;;;11.10;1.00;;;;;;8341368;28;20287;-69
2023/04/27 13:27:02;;;;;;;6.57;2.90;;;11.00;1.00;;;;;;8352685;28;20217;-69
2023/04/27 13:31:16;;;;;;;5.60;2.80;;;11.10;1.00;;;;;;8356663;28;20276;-69
2023/04/27 13:35:25;;;;;;;5.40;2.43;;;11.00;1.00;;;;;;8353838;28;20197;-69
2023/04/27 13:39:32;;;;;;;6.27;2.63;;;11.30;1.00;;;;;;8353337;28;20193;-69
2023/04/27 13:43:43;;;;;;;4.50;2.70;;;11.50;1.00;;;;;;8352799;28;20204;-70
2023/04/27 13:48:20;;;;;;;6.50;3.30;;;11.50;1.00;;;;;;8350887;28;20188;-69
2023/04/27 13:52:31;;;;;;;5.20;2.77;;;11.30;1.00;;;;;;8337875;28;20276;-71
2023/04/27 13:57:22;;;;;;;2.97;2.20;;;10.70;1.00;;;;;;8352988;28;20242;-68
2023/04/27 14:01:23;;;;;;;5.97;2.70;;;11.00;1.00;;;;;;8269264;28;20209;-68
2023/04/27 14:06:04;;;;;;;5.53;2.70;;;12.00;1.00;;;;;;8354138;28;20363;-68
2023/04/27 14:10:31;;;;;;;5.10;2.60;;;12.60;1.00;;;;;;8229755;28;20200;-67
2023/04/27 14:14:40;;;;;;;3.77;2.47;;;12.10;1.00;;;;;;8227431;28;20297;-69
2023/04/27 14:18:42;;;;;;;7.20;2.93;;;11.90;1.00;;;;;;8229659;28;20200;-68
2023/04/27 14:23:33;;;;;;;3.27;2.60;;;11.80;1.00;;;;;;8226903;28;20220;-69
2023/04/27 14:27:38;;;;;;;3.53;2.50;;;11.50;1.00;;;;;;8200257;28;20203;-67
2023/04/27 14:32:03;;;;;;;2.80;2.53;;;11.20;1.00;;;;;;8302789;28;20292;-69
2023/04/27 14:36:20;;;;;;;3.70;2.50;;;11.10;1.00;;;;;;8324153;28;20265;-68
2023/04/27 14:40:24;;;;;;;3.30;2.80;;;11.40;1.00;;;;;;8299258;28;20195;-66
2023/04/27 14:45:05;;;;;;;8.00;2.53;;;11.40;1.00;;;;;;8317670;28;20231;-67
2023/04/27 14:49:24;;;;;;;4.17;2.40;;;11.60;1.00;;;;;;8346095;28;20304;-67
2023/04/27 14:53:27;;;;;;;4.50;2.33;;;12.00;1.00;;;;;;8312261;28;20206;-68
2023/04/27 14:57:31;;;;;;;4.53;2.67;;;12.20;1.00;;;;;;8294561;28;20264;-67
2023/04/27 15:02:19;;;;;;;5.37;3.17;;;11.90;1.00;;;;;;8294005;28;20193;-69
2023/04/27 15:06:34;;;;;;;3.07;2.50;;;11.50;1.00;;;;;;8314101;28;20391;-69
2023/04/27 15:11:14;;;;;;;4.50;2.87;;;11.10;1.00;;;;;;8293112;28;20292;-68
2023/04/27 15:15:34;;;;;;;6.30;2.80;;;10.90;1.00;;;;;;8468004;23;20240;-79
2023/04/27 15:19:58;;;;;;;;;;;;;;;;;;;;;
2023/04/27 15:24:03;;;;;;;4.40;3.40;;;11.20;1.00;;;;;;8300555;28;20189;-81
2023/04/27 15:28:06;;;;;;;3.80;3.00;;;11.50;1.00;;;;;;8285666;28;20181;-79
2023/04/27 15:32:14;;;;;;;9.27;4.17;;;11.60;1.00;;;;;;8285743;28;20186;-79
2023/04/27 15:36:16;;;;;;;6.33;2.77;;;11.40;1.00;;;;;;8282611;28;20194;-81
2023/04/27 15:40:17;;;;;;;3.97;2.70;;;11.60;1.00;;;;;;8278905;28;20210;-81
2023/04/27 15:44:19;;;;;;;3.77;2.57;;;11.80;1.00;;;;;;8279557;28;20282;-80
2023/04/27 15:48:20;;;;;;;4.37;2.90;;;11.60;1.00;;;;;;8275045;28;20186;-81
2023/04/27 15:52:25;;;;;;;3.23;2.13;;;11.50;1.00;;;;;;8274689;28;20217;-80
2023/04/27 15:56:27;;;;;;;5.00;2.50;;;11.80;1.00;;;;;;8287355;28;20215;-79
2023/04/27 16:01:02;;;;;;;4.63;2.30;;;11.80;1.00;;;;;;8284852;28;20194;-80
2023/04/27 16:05:07;;;;;;;6.50;2.30;;;11.50;1.00;;;;;;8292231;28;20212;-80
2023/04/27 16:09:09;;;;;;;4.67;2.90;;;11.20;1.00;;;;;;8317780;28;20198;-80
2023/04/27 16:13:11;;;;;;;5.33;2.70;;;10.80;1.00;;;;;;8323387;28;20281;-80
2023/04/27 16:17:18;;;;;;;6.67;3.23;;;10.70;1.00;;;;;;8317737;28;20214;-81
2023/04/27 16:21:22;;;;;;;6.03;2.83;;;10.70;1.00;;;;;;8314167;28;20186;-79
2023/04/27 16:25:23;;;;;;;4.83;2.77;;;10.70;1.00;;;;;;8297366;28;20209;-80
2023/04/27 16:29:24;;;;;;;5.90;2.77;;;10.70;1.00;;;;;;8290709;28;20218;-80
2023/04/27 16:33:47;;;;;;;3.40;2.50;;;10.70;1.00;;;;;;8289367;28;20289;-79
2023/04/27 16:37:49;;;;;;;4.43;2.80;;;10.60;1.00;;;;;;8302811;28;20210;-79
2023/04/27 16:41:50;;;;;;;4.17;2.90;;;10.70;1.00;;;;;;8292315;28;20200;-79
2023/04/27 16:45:54;;;;;;;6.10;2.57;;;11.00;1.00;;;;;;8296222;28;20190;-79
2023/04/27 16:49:55;;;;;;;3.67;2.40;;;11.00;1.00;;;;;;8295802;28;20201;-78
2023/04/27 16:53:57;;;;;;;6.80;2.47;;;10.80;1.00;;;;;;8291917;28;20243;-79
2023/04/27 16:58:07;;;;;;;3.87;2.33;;;10.70;1.00;;;;;;8296853;28;20221;-80
2023/04/27 17:02:17;;;;;;;5.43;2.80;;;10.50;1.00;;;;;;8299178;28;20191;-80
2023/04/27 17:06:33;;;;;;;4.70;2.63;;;10.50;1.00;;;;;;8299343;28;20330;-80
2023/04/27 17:10:53;;;;;;;11.10;7.83;;;10.40;1.00;;;;;;8291853;28;20184;-80
2023/04/27 17:14:54;;;;;;;14.57;7.40;;;10.50;1.00;;;;;;8306078;28;20300;-81
2023/04/27 17:19:13;;;;;;;11.03;6.63;;;10.40;1.00;;;;;;8309641;28;20224;-79
2023/04/27 17:23:14;;;;;;;12.30;5.30;;;10.40;1.00;;;;;;8329531;28;20254;-82
2023/04/27 17:27:16;;;;;;;29.40;17.67;;;10.40;1.00;;;;;;8307902;28;20226;-81
2023/04/27 17:31:20;;;;;;;7.27;4.20;;;10.40;1.00;;;;;;8307439;28;20182;-81
2023/04/27 17:35:52;;;;;;;6.07;3.37;;;10.30;1.00;;;;;;8312426;28;20216;-85
2023/04/27 17:39:59;;;;;;;3.97;2.30;;;10.10;1.00;;;;;;8285836;28;20191;-86
2023/04/27 17:44:42;;;;;;;;;;;;;;;;;;;;;
2023/04/27 17:48:50;;;;;;;6.77;5.07;;;9.70;1.00;;;;;;8285490;28;20283;-85
2023/04/27 17:53:25;;;;;;;10.87;6.97;;;9.40;1.00;;;;;;8290179;28;20214;-86
2023/04/27 17:57:32;;;;;;;14.33;7.40;;;9.20;1.00;;;;;;8297872;23;20249;-69
2023/04/27 18:01:33;;;;;;;23.67;12.33;;;8.90;1.00;;;;;;8326641;28;20216;-68
2023/04/27 18:05:40;;;;;;;33.37;18.03;;;8.60;1.00;;;;;;8324305;28;20194;-68
2023/04/27 18:09:44;;;;;;;27.03;13.07;;;8.30;1.00;;;;;;8327288;28;20205;-68
2023/04/27 18:14:39;;;;;;;;;;;;;;;;;;;;;
2023/04/27 18:19:11;;;;;;;8.33;4.53;;;7.60;1.00;;;;;;8231929;28;20286;-69
2023/04/27 18:23:18;;;;;;;7.70;4.07;;;7.20;1.00;;;;;;8264012;28;20195;-69
2023/04/27 18:27:54;;;;;;;;;;;;;;;;;;;;;
2023/04/27 18:32:04;;;;;;;10.00;5.57;;;6.50;1.00;;;;;;8262350;28;20242;-69
2023/04/27 18:36:33;;;;;;;13.17;6.70;;;6.10;1.00;;;;;;8262859;28;20218;-68
2023/04/27 18:41:07;;;;;;;13.10;7.97;;;5.80;1.00;;;;;;8264866;28;20274;-69
2023/04/27 18:45:40;;;;;;;14.17;8.73;;;5.50;1.00;;;;;;8297502;28;20277;-69
2023/04/27 18:50:00;;;;;;;14.97;8.73;;;5.30;1.00;;;;;;8299508;28;20213;-68
2023/04/27 18:54:32;;;;;;;16.37;8.93;;;5.10;1.00;;;;;;8301497;28;20214;-69
2023/04/27 18:58:47;;;;;;;15.30;8.87;;;4.90;1.00;;;;;;8352277;28;20217;-65
2023/04/27 19:02:50;;;;;;;14.07;8.50;;;4.70;1.00;;;;;;8301935;28;20225;-65
2023/04/27 19:07:00;;;;;;;13.83;7.43;;;4.50;1.00;;;;;;8300415;28;20198;-65
2023/04/27 19:11:35;;;;;;;13.80;6.80;;;4.40;1.00;;;;;;8304300;28;20190;-66
2023/04/27 19:15:45;;;;;;;10.93;6.23;;;4.20;1.00;;;;;;8307095;28;20220;-65
2023/04/27 19:19:53;;;;;;;11.13;6.50;;;4.10;6.90;;;;;;8293285;28;20190;-66
2023/04/27 19:24:07;;;;;;;8.33;5.07;;;3.90;17.30;;;;;;8292514;28;20198;-67
2023/04/27 19:28:22;;;;;;;7.73;5.40;;;3.80;29.10;;;;;;8314016;28;20201;-67
2023/04/27 19:32:44;;;;;;;7.30;5.03;;;3.60;45.10;;;;;;8296290;28;20258;-67
2023/04/27 19:36:45;;;;;;;10.00;5.17;;;3.50;60.80;;;;;;8284651;28;20196;-66
2023/04/27 19:40:55;;;;;;;8.73;3.90;;;3.40;77.70;;;;;;8292314;28;20182;-71
2023/04/27 19:45:22;;;;;;;5.97;4.20;;;3.20;92.70;;;;;;8298896;28;20234;-67
2023/04/27 19:49:38;;;;;;;7.50;3.77;;;3.10;99.90;;;;;;8297577;28;20187;-66
2023/04/27 19:53:55;;;;;;;8.10;3.93;;;3.00;99.90;;;;;;8291034;28;20211;-66
2023/04/27 19:57:59;;;;;;;6.17;3.60;;;2.90;99.90;;;;;;8315847;28;20198;-68
2023/04/27 20:02:31;;;;;;;5.70;3.27;;;2.70;99.90;;;;;;8302060;28;20193;-66
2023/04/27 20:06:36;;;;;;;5.57;3.33;;;2.60;99.90;;;;;;8265937;28;20194;-66
2023/04/27 20:11:11;;;;;;;4.90;3.27;;;2.50;99.90;;;;;;8225755;28;20228;-66
2023/04/27 20:15:13;;;;;;;3.87;3.07;;;2.40;99.90;;;;;;8205766;28;20414;-66
2023/04/27 20:19:59;;;;;;;4.63;3.20;;;2.20;99.90;;;;;;8207831;28;20177;-67
2023/04/27 20:28:14;;;;;;;5.30;2.77;;;2.00;99.90;;;;;;8208151;28;20192;-66
2023/04/27 20:32:15;;;;;;;5.20;3.20;;;1.90;99.90;;;;;;8202624;28;20194;-66
2023/04/27 20:36:37;;;;;;;3.97;2.90;;;1.80;99.90;;;;;;8204717;28;20191;-65
2023/04/27 20:40:52;;;;;;;6.67;3.40;;;1.70;99.90;;;;;;8207665;28;20200;-66
2023/04/27 20:44:56;;;;;;;4.60;3.13;;;1.60;99.90;;;;;;8221706;28;20192;-65
2023/04/27 20:49:10;;;;;;;4.30;3.30;;;1.60;99.90;;;;;;8203508;28;20212;-65
2023/04/27 20:53:27;;;;;;;4.93;2.93;;;1.50;99.90;;;;;;8197549;28;20213;-68
2023/04/27 20:57:37;;;;;;;5.20;2.87;;;1.40;99.90;;;;;;8185817;28;20224;-66
2023/04/27 21:01:59;;;;;;;4.60;3.10;;;1.40;99.90;;;;;;8206473;28;20201;-68
2023/04/27 21:10:40;;;;;;;5.60;2.90;;;1.10;99.90;;;;;;8205917;28;20196;-66
2023/04/27 21:19:16;;;;;;;8.80;5.23;;;1.00;99.90;;;;;;8210380;28;20200;-66
2023/04/27 21:23:29;;;;;;;8.27;5.10;;;1.00;99.90;;;;;;8205874;28;20259;-66
2023/04/27 21:32:10;;;;;;;7.10;3.97;;;0.80;99.90;;;;;;8213626;28;20215;-65
2023/04/27 21:36:43;;;;;;;7.10;3.73;;;0.70;99.90;;;;;;8197298;28;20274;-66
2023/04/27 21:41:07;;;;;;;8.20;5.53;;;0.60;1.00;;;;;;8197616;28;20236;-66
2023/04/27 21:45:17;;;;;;;8.47;5.60;;;0.60;1.00;;;;;;8201208;28;20224;-66
2023/04/27 21:49:39;;;;;;;6.10;4.50;;;0.50;1.00;;;;;;8217140;28;20181;-66
2023/04/27 21:58:07;;;;;;;6.53;3.93;;;0.40;1.00;;;;;;8202231;28;20274;-67
2023/04/27 22:02:17;;;;;;;7.53;4.83;;;0.30;1.00;;;;;;8201586;28;20191;-65
2023/04/27 22:06:57;;;;;;;;;;;;;;;;;;;;;
2023/04/27 22:11:16;;;;;;;6.60;4.20;;;0.20;1.00;;;;;;8199808;28;20211;-66
2023/04/27 22:15:41;;;;;;;7.33;3.87;;;0.10;1.00;;;;;;8215569;28;20225;-65
2023/04/27 22:19:54;;;;;;;7.73;4.43;;;0.00;1.00;;;;;;8184968;28;20230;-66
2023/04/27 22:24:16;;;;;;;5.70;3.90;;;0.00;1.00;;;;;;8199400;28;20210;-66
2023/04/27 22:28:36;;;;;;;5.63;4.37;;;-0.10;10.70;;;;;;8201824;28;20196;-65
2023/04/27 22:32:48;;;;;;;7.43;3.80;;;-0.10;46.40;;;;;;8209374;28;20206;-66
2023/04/27 22:36:53;;;;;;;6.50;4.87;;;-0.20;94.50;;;;;;8172325;28;20200;-66
2023/04/27 22:41:06;;;;;;;6.53;4.43;;;-0.20;99.90;;;;;;8070891;29;20206;-67
2023/04/27 22:45:48;;;;;;;8.37;4.67;;;-0.20;99.90;;;;;;8071844;29;20226;-66
2023/04/27 22:50:15;;;;;;;11.50;4.87;;;-0.20;99.90;;;;;;8050654;29;20235;-67
2023/04/27 22:54:26;;;;;;;10.10;4.83;;;-0.20;99.90;;;;;;8071347;29;20236;-66
2023/04/27 22:58:37;;;;;;;7.97;4.80;;;-0.20;99.90;;;;;;8067612;29;20415;-66
2023/04/27 23:02:53;;;;;;;11.27;5.67;;;-0.20;99.90;;;;;;8050621;29;20288;-67
2023/04/27 23:06:57;;;;;;;9.40;5.10;;;-0.20;99.90;;;;;;8051727;29;20229;-66
2023/04/27 23:11:02;;;;;;;7.33;5.43;;;-0.10;99.90;;;;;;8117245;28;20204;-66
2023/04/27 23:15:17;;;;;;;8.40;4.57;;;-0.10;99.90;;;;;;8209709;28;20218;-66
2023/04/27 23:19:39;;;;;;;9.00;5.07;;;0.00;99.90;;;;;;8200156;28;20197;-66
2023/04/27 23:23:54;;;;;;;12.57;6.37;;;0.10;99.90;;;;;;8197816;28;20292;-67
2023/04/27 23:28:21;;;;;;;10.07;5.90;;;0.20;99.90;;;;;;8195112;28;20211;-66
2023/04/27 23:32:47;;;;;;;13.73;6.80;;;0.30;99.90;;;;;;8156572;28;20249;-68
2023/04/27 23:37:08;;;;;;;9.57;5.90;;;0.40;99.90;;;;;;8194824;28;20193;-67
2023/04/27 23:41:33;;;;;;;10.97;6.23;;;0.60;99.90;;;;;;8188264;28;20188;-66
2023/04/27 23:45:46;;;;;;;7.87;5.33;;;0.70;99.90;;;;;;8202444;28;20240;-66
2023/04/27 23:50:13;;;;;;;8.87;6.30;;;0.70;99.90;;;;;;8214712;28;20187;-67
2023/04/27 23:54:38;;;;;;;10.87;6.33;;;0.70;99.90;;;;;;8160892;28;20196;-66
